Terminal Aerodrome Forecast
Issued by NWS

Current Version | Previous Version | Text Only | Print | Product List | Glossary Off
Versions: 1 2 3 4 5 6 7 8 9 10 11 12 13 14 15 16 17 18 19 20 21

000
FTUS42 KILM 271720
TAFCRE
TAF
KCRE 271720Z 2718/2818 17009KT P6SM SCT060
     FM280300 19005KT P6SM SCT200 PROB30 2812/2816 4SM -TSRA
      OVC015CB
     FM281600 21009KT P6SM BKN060 PROB30 2816/2818 4SM -TSRA
      OVC015CB=

USA.gov is the U.S. government's official web portal to all federal, state and local government web resources and services.